Time;durP1;ratioP1;P1;durP2;ratioP2;P2;SDS_P1;SDS_P2;PMS_P1;PMS_P2;Temp;Humidity;BMP_temperature;BMP_pressure;BME280_temperature;BME280_humidity;BME280_pressure;Samples;Min_cycle;Max_cycle;Signal;HPM_P1;HPM_P2
2022/05/31 00:00:10;;;;;;;4.78;2.58;;;;;;;;;;5065517;28;20037;-79
2022/05/31 00:02:36;;;;;;;5.55;2.70;;;;;;;;;;5062769;28;20481;-79
2022/05/31 00:05:03;;;;;;;5.15;2.80;;;;;;;;;;5063334;28;20047;-79
2022/05/31 00:07:29;;;;;;;5.05;2.70;;;;;;;;;;5062525;28;21180;-79
2022/05/31 00:09:55;;;;;;;5.25;2.83;;;;;;;;;;5061559;28;20072;-79
2022/05/31 00:12:21;;;;;;;5.88;2.72;;;;;;;;;;5063744;28;20051;-79
2022/05/31 00:14:47;;;;;;;4.70;2.92;;;;;;;;;;5065430;28;20044;-79
2022/05/31 00:17:13;;;;;;;6.65;3.05;;;;;;;;;;5066233;28;20041;-79
2022/05/31 00:19:39;;;;;;;6.78;3.03;;;;;;;;;;5073312;28;20044;-79
2022/05/31 00:22:08;;;;;;;7.00;3.03;;;;;;;;;;5062467;28;20098;-80
2022/05/31 00:24:34;;;;;;;8.15;3.15;;;;;;;;;;5063605;28;20033;-79
2022/05/31 00:27:03;;;;;;;5.43;3.25;;;;;;;;;;5061753;28;20046;-79
2022/05/31 00:29:29;;;;;;;6.30;3.42;;;;;;;;;;5062545;28;20045;-78
2022/05/31 00:31:55;;;;;;;5.65;3.35;;;;;;;;;;5064869;28;20059;-79
2022/05/31 00:34:21;;;;;;;6.47;3.60;;;;;;;;;;5061819;28;20048;-78
2022/05/31 00:36:48;;;;;;;5.45;3.10;;;;;;;;;;5062982;28;20045;-78
2022/05/31 00:39:14;;;;;;;6.78;3.50;;;;;;;;;;5089980;28;20428;-79
2022/05/31 00:41:40;;;;;;;6.32;3.65;;;;;;;;;;5055738;28;20079;-79
2022/05/31 00:44:11;;;;;;;5.95;3.50;;;;;;;;;;5063306;28;20045;-79
2022/05/31 00:46:49;;;;;;;6.18;3.35;;;;;;;;;;5072893;28;20090;-79
2022/05/31 00:49:19;;;;;;;7.40;3.60;;;;;;;;;;5065581;28;20492;-78
2022/05/31 00:51:51;;;;;;;7.10;3.70;;;;;;;;;;5055848;28;20584;-78
2022/05/31 00:54:19;;;;;;;6.50;3.67;;;;;;;;;;5072882;28;20056;-79
2022/05/31 00:56:46;;;;;;;5.30;3.35;;;;;;;;;;5069362;28;20036;-79
2022/05/31 00:59:24;;;;;;;6.50;3.50;;;;;;;;;;5062454;28;20165;-79
2022/05/31 01:01:51;;;;;;;5.65;3.60;;;;;;;;;;5076289;28;20044;-78
2022/05/31 01:04:19;;;;;;;5.97;3.70;;;;;;;;;;5054691;28;20041;-79
2022/05/31 01:06:45;;;;;;;6.18;3.42;;;;;;;;;;5055552;28;20045;-78
2022/05/31 01:09:11;;;;;;;5.95;3.70;;;;;;;;;;5066266;28;20044;-79
2022/05/31 01:11:39;;;;;;;6.60;4.07;;;;;;;;;;5080171;28;20044;-79
2022/05/31 01:14:05;;;;;;;7.60;3.47;;;;;;;;;;5076257;28;20044;-79
2022/05/31 01:16:31;;;;;;;6.47;3.95;;;;;;;;;;5055905;28;20048;-79
2022/05/31 01:18:57;;;;;;;5.68;3.42;;;;;;;;;;5065896;28;20513;-79
2022/05/31 01:21:23;;;;;;;6.75;3.47;;;;;;;;;;5066669;28;20036;-79
2022/05/31 01:23:55;;;;;;;7.40;3.40;;;;;;;;;;5074866;28;20437;-79
2022/05/31 01:26:30;;;;;;;7.00;3.17;;;;;;;;;;5074097;28;20040;-78
2022/05/31 01:29:02;;;;;;;5.85;3.70;;;;;;;;;;5075515;28;20055;-79
2022/05/31 01:31:30;;;;;;;5.57;3.60;;;;;;;;;;5069257;28;20535;-79
2022/05/31 01:34:21;;;;;;;6.03;3.47;;;;;;;;;;5067211;28;20063;-79
2022/05/31 01:36:48;;;;;;;7.65;3.80;;;;;;;;;;5056486;28;20055;-79
2022/05/31 01:39:26;;;;;;;8.90;4.00;;;;;;;;;;5065166;28;20052;-79
2022/05/31 01:42:05;;;;;;;7.13;3.92;;;;;;;;;;5062284;28;20374;-79
2022/05/31 01:44:33;;;;;;;7.57;3.92;;;;;;;;;;5074887;28;20036;-79
2022/05/31 01:47:00;;;;;;;7.78;3.53;;;;;;;;;;5058959;28;20041;-79
2022/05/31 01:49:30;;;;;;;5.82;3.42;;;;;;;;;;5068915;28;20039;-78
2022/05/31 01:51:56;;;;;;;6.13;3.50;;;;;;;;;;5063887;28;20109;-78
2022/05/31 01:54:23;;;;;;;6.63;3.50;;;;;;;;;;5054860;28;20400;-79
2022/05/31 01:56:52;;;;;;;5.40;3.20;;;;;;;;;;5073692;28;20045;-79
2022/05/31 01:59:18;;;;;;;6.63;3.67;;;;;;;;;;5065948;28;20089;-78
2022/05/31 02:01:44;;;;;;;6.05;3.35;;;;;;;;;;5073385;28;20037;-79
2022/05/31 02:04:11;;;;;;;9.57;3.75;;;;;;;;;;5073520;28;20478;-79
2022/05/31 02:06:38;;;;;;;6.78;3.67;;;;;;;;;;5069632;28;20095;-79
2022/05/31 02:09:06;;;;;;;5.43;3.70;;;;;;;;;;5058150;28;20120;-79
2022/05/31 02:11:32;;;;;;;6.22;4.00;;;;;;;;;;5063162;28;20040;-79
2022/05/31 02:13:58;;;;;;;6.32;4.18;;;;;;;;;;5069904;28;20048;-80
2022/05/31 02:16:24;;;;;;;6.35;4.22;;;;;;;;;;5055953;28;20033;-79
2022/05/31 02:21:35;;;;;;;5.93;4.03;;;;;;;;;;5061465;28;20619;-79
2022/05/31 02:24:03;;;;;;;7.25;4.20;;;;;;;;;;5062467;28;20123;-79
2022/05/31 02:26:29;;;;;;;7.15;3.92;;;;;;;;;;5074638;28;20043;-78
2022/05/31 02:28:55;;;;;;;5.90;3.92;;;;;;;;;;5074824;28;20040;-79
2022/05/31 02:31:21;;;;;;;6.47;3.88;;;;;;;;;;5072796;28;20040;-79
2022/05/31 02:33:47;;;;;;;7.68;4.15;;;;;;;;;;5055348;28;20036;-79
2022/05/31 02:36:13;;;;;;;8.30;3.83;;;;;;;;;;5056433;28;20047;-78
2022/05/31 02:38:40;;;;;;;6.43;3.85;;;;;;;;;;5062274;28;20044;-79
2022/05/31 02:41:06;;;;;;;5.68;3.83;;;;;;;;;;5083922;28;20060;-78
2022/05/31 02:43:32;;;;;;;6.93;4.07;;;;;;;;;;5083766;28;20044;-79
2022/05/31 02:46:03;;;;;;;6.70;4.47;;;;;;;;;;5069859;28;20045;-79
2022/05/31 02:48:29;;;;;;;5.47;4.00;;;;;;;;;;5066823;28;20119;-79
2022/05/31 02:50:55;;;;;;;8.05;4.50;;;;;;;;;;5073686;28;20307;-79
2022/05/31 02:53:21;;;;;;;6.70;4.03;;;;;;;;;;5064962;28;20068;-79
2022/05/31 02:55:47;;;;;;;5.97;4.07;;;;;;;;;;5077660;28;20127;-79
2022/05/31 02:58:13;;;;;;;7.68;4.40;;;;;;;;;;5065620;28;20048;-79
2022/05/31 03:00:40;;;;;;;7.32;4.80;;;;;;;;;;5063913;28;20045;-78
2022/05/31 03:03:06;;;;;;;5.97;4.20;;;;;;;;;;5077541;28;20048;-79
2022/05/31 03:05:32;;;;;;;7.72;4.80;;;;;;;;;;5066619;28;20090;-79
2022/05/31 03:07:58;;;;;;;6.07;4.45;;;;;;;;;;5082586;28;20060;-78
2022/05/31 03:10:27;;;;;;;7.07;4.50;;;;;;;;;;5078576;28;20036;-79
2022/05/31 03:12:55;;;;;;;6.40;4.47;;;;;;;;;;5078172;28;20044;-78
2022/05/31 03:15:21;;;;;;;7.47;4.70;;;;;;;;;;5068379;28;20051;-79
2022/05/31 03:17:49;;;;;;;7.22;4.70;;;;;;;;;;5076941;28;20486;-79
2022/05/31 03:20:18;;;;;;;8.55;4.60;;;;;;;;;;5074026;28;20063;-80
2022/05/31 03:22:55;;;;;;;7.78;4.47;;;;;;;;;;5078365;28;20084;-79
2022/05/31 03:25:26;;;;;;;6.57;4.50;;;;;;;;;;5076120;28;20045;-79
2022/05/31 03:27:53;;;;;;;7.63;4.60;;;;;;;;;;5090442;28;20044;-79
2022/05/31 03:30:19;;;;;;;6.95;4.68;;;;;;;;;;5062306;28;20439;-79
2022/05/31 03:32:45;;;;;;;6.53;4.55;;;;;;;;;;5076948;28;20043;-79
2022/05/31 03:35:11;;;;;;;7.20;5.15;;;;;;;;;;5075228;28;20094;-79
2022/05/31 03:37:38;;;;;;;8.27;5.10;;;;;;;;;;5064431;28;20052;-80
2022/05/31 03:40:05;;;;;;;7.63;5.15;;;;;;;;;;5068868;28;20127;-79
2022/05/31 03:42:31;;;;;;;8.07;4.82;;;;;;;;;;5077642;28;20056;-79
2022/05/31 03:44:57;;;;;;;8.35;5.20;;;;;;;;;;5066488;28;20109;-80
2022/05/31 03:47:26;;;;;;;9.55;5.38;;;;;;;;;;5068852;28;20056;-79
2022/05/31 03:49:52;;;;;;;7.15;5.80;;;;;;;;;;5077402;28;20044;-79
2022/05/31 03:52:18;;;;;;;9.38;6.07;;;;;;;;;;5070421;28;20044;-79
2022/05/31 03:54:45;;;;;;;9.05;5.82;;;;;;;;;;5067460;28;20132;-78
2022/05/31 03:57:18;;;;;;;8.48;5.53;;;;;;;;;;5063473;28;20040;-79
2022/05/31 03:59:44;;;;;;;8.63;5.72;;;;;;;;;;5062741;28;20490;-79
2022/05/31 04:02:10;;;;;;;9.60;5.57;;;;;;;;;;5068968;28;20051;-78
2022/05/31 04:04:36;;;;;;;11.20;5.95;;;;;;;;;;5069692;28;20109;-79
2022/05/31 04:07:03;;;;;;;9.40;5.65;;;;;;;;;;5068247;28;20047;-78
2022/05/31 04:09:29;;;;;;;9.40;5.90;;;;;;;;;;5059224;28;20106;-78
2022/05/31 04:11:57;;;;;;;8.25;5.50;;;;;;;;;;5058675;28;20380;-78
2022/05/31 04:14:23;;;;;;;9.10;6.10;;;;;;;;;;5062054;28;20081;-78
2022/05/31 04:16:49;;;;;;;8.68;6.20;;;;;;;;;;5060318;28;20048;-79
2022/05/31 04:19:15;;;;;;;8.52;5.90;;;;;;;;;;5071653;28;20124;-79
2022/05/31 04:21:41;;;;;;;8.05;5.25;;;;;;;;;;5073414;28;20131;-79
2022/05/31 04:24:11;;;;;;;7.70;5.60;;;;;;;;;;5069259;28;20399;-79
2022/05/31 04:26:42;;;;;;;8.88;5.43;;;;;;;;;;5069898;28;20410;-78
2022/05/31 04:29:08;;;;;;;8.65;5.68;;;;;;;;;;5070489;28;20043;-79
2022/05/31 04:31:34;;;;;;;8.00;5.82;;;;;;;;;;5074362;28;20084;-79
2022/05/31 04:34:00;;;;;;;8.27;6.00;;;;;;;;;;5071534;28;20566;-78
2022/05/31 04:36:26;;;;;;;7.78;6.03;;;;;;;;;;5071873;28;20052;-79
2022/05/31 04:38:52;;;;;;;8.40;5.90;;;;;;;;;;5075668;28;20051;-78
2022/05/31 04:41:22;;;;;;;11.10;6.00;;;;;;;;;;5067752;28;20113;-80
2022/05/31 04:43:48;;;;;;;9.02;5.55;;;;;;;;;;5066644;28;20049;-79
2022/05/31 04:46:16;;;;;;;9.30;6.22;;;;;;;;;;5066619;28;20387;-79
2022/05/31 04:48:42;;;;;;;8.48;6.30;;;;;;;;;;5073148;28;20131;-79
2022/05/31 04:51:08;;;;;;;9.93;6.10;;;;;;;;;;5079093;28;20075;-79
2022/05/31 04:53:34;;;;;;;10.55;6.28;;;;;;;;;;5064059;28;20049;-79
2022/05/31 04:56:04;;;;;;;10.30;6.35;;;;;;;;;;5062654;28;20127;-79
2022/05/31 04:58:30;;;;;;;10.32;6.60;;;;;;;;;;5064412;28;20041;-80
2022/05/31 05:00:56;;;;;;;8.50;6.72;;;;;;;;;;5077070;28;20048;-79
2022/05/31 05:03:22;;;;;;;9.13;6.88;;;;;;;;;;5072880;28;20040;-79
2022/05/31 05:05:48;;;;;;;9.40;6.40;;;;;;;;;;5066504;28;20402;-80
2022/05/31 05:08:14;;;;;;;10.60;6.35;;;;;;;;;;5060416;28;20045;-79
2022/05/31 05:10:46;;;;;;;8.63;6.63;;;;;;;;;;5078482;28;20045;-79
2022/05/31 05:13:13;;;;;;;9.27;6.55;;;;;;;;;;5076077;28;20402;-78
2022/05/31 05:15:40;;;;;;;8.93;6.65;;;;;;;;;;5073917;28;20112;-79
2022/05/31 05:18:06;;;;;;;8.40;6.28;;;;;;;;;;5061065;28;20104;-79
2022/05/31 05:20:35;;;;;;;7.75;6.32;;;;;;;;;;5068172;28;20131;-79
2022/05/31 05:23:03;;;;;;;8.65;6.82;;;;;;;;;;5067690;28;20049;-79
2022/05/31 05:25:29;;;;;;;10.40;6.95;;;;;;;;;;5073537;28;20072;-79
2022/05/31 05:27:55;;;;;;;9.40;6.55;;;;;;;;;;5078728;28;20066;-80
2022/05/31 05:30:39;;;;;;;11.50;7.22;;;;;;;;;;5099745;28;20044;-79
2022/05/31 05:33:06;;;;;;;8.48;6.30;;;;;;;;;;5060514;28;20123;-78
2022/05/31 05:35:32;;;;;;;8.63;6.40;;;;;;;;;;5071784;28;20499;-79
2022/05/31 05:38:00;;;;;;;9.32;6.80;;;;;;;;;;5060282;28;20049;-79
2022/05/31 05:40:26;;;;;;;9.05;6.97;;;;;;;;;;5082486;28;20101;-79
2022/05/31 05:42:52;;;;;;;10.80;6.75;;;;;;;;;;5071569;28;20047;-79
2022/05/31 05:45:18;;;;;;;9.52;7.07;;;;;;;;;;5099258;28;20041;-79
2022/05/31 05:47:46;;;;;;;9.90;7.07;;;;;;;;;;5086465;28;20068;-79
2022/05/31 05:50:12;;;;;;;10.25;7.35;;;;;;;;;;5080824;28;20080;-78
2022/05/31 05:52:40;;;;;;;10.48;7.15;;;;;;;;;;5078168;28;20052;-79
2022/05/31 05:55:06;;;;;;;10.75;6.43;;;;;;;;;;5065482;28;20078;-79
2022/05/31 05:57:32;;;;;;;8.80;6.40;;;;;;;;;;5086407;28;20037;-79
2022/05/31 05:59:58;;;;;;;8.77;6.63;;;;;;;;;;5075502;28;20041;-80
2022/05/31 06:02:28;;;;;;;8.80;6.78;;;;;;;;;;5075060;28;20071;-79
2022/05/31 06:05:09;;;;;;;9.77;7.30;;;;;;;;;;5068682;28;20509;-79
2022/05/31 06:07:39;;;;;;;9.05;6.03;;;;;;;;;;5074426;28;20059;-79
2022/05/31 06:10:11;;;;;;;11.50;6.72;;;;;;;;;;5061115;28;20522;-79
2022/05/31 06:12:44;;;;;;;9.85;5.90;;;;;;;;;;5078059;28;20052;-79
2022/05/31 06:15:15;;;;;;;9.88;5.95;;;;;;;;;;5078320;28;20044;-79
2022/05/31 06:17:44;;;;;;;8.93;5.63;;;;;;;;;;5077048;28;20036;-79
2022/05/31 06:20:10;;;;;;;8.93;5.38;;;;;;;;;;5077012;28;20068;-79
2022/05/31 06:22:38;;;;;;;8.15;5.00;;;;;;;;;;5079473;28;20043;-79
2022/05/31 06:25:04;;;;;;;8.70;5.38;;;;;;;;;;5072194;28;20110;-79
2022/05/31 06:27:30;;;;;;;8.90;5.10;;;;;;;;;;5072881;28;20441;-79
2022/05/31 06:29:56;;;;;;;6.65;4.85;;;;;;;;;;5075398;28;20037;-80
2022/05/31 06:32:22;;;;;;;9.93;5.28;;;;;;;;;;5073012;28;20100;-79
2022/05/31 06:34:48;;;;;;;8.80;5.43;;;;;;;;;;5081043;28;20144;-79
2022/05/31 06:37:15;;;;;;;7.53;4.70;;;;;;;;;;5078224;28;20127;-79
2022/05/31 06:39:42;;;;;;;8.50;4.80;;;;;;;;;;5083006;28;20044;-79
2022/05/31 06:42:10;;;;;;;8.73;5.10;;;;;;;;;;5069243;28;20055;-79
2022/05/31 06:44:37;;;;;;;7.75;4.80;;;;;;;;;;5062466;28;20049;-80
2022/05/31 06:47:03;;;;;;;9.75;4.50;;;;;;;;;;5063533;28;20056;-79
2022/05/31 06:49:30;;;;;;;8.10;4.57;;;;;;;;;;5062147;28;20041;-79
2022/05/31 06:57:25;;;;;;;8.63;4.72;;;;;;;;;;5082604;28;20133;-79
2022/05/31 06:59:52;;;;;;;9.93;4.85;;;;;;;;;;5083943;28;20048;-79
2022/05/31 07:02:18;;;;;;;7.28;4.90;;;;;;;;;;5083344;28;20040;-79
2022/05/31 07:04:44;;;;;;;7.22;4.70;;;;;;;;;;5074860;28;20128;-79
2022/05/31 07:07:10;;;;;;;10.27;4.70;;;;;;;;;;5070308;28;20052;-79
2022/05/31 07:09:36;;;;;;;6.78;4.00;;;;;;;;;;5072697;28;20051;-79
2022/05/31 07:12:02;;;;;;;8.05;4.38;;;;;;;;;;5082693;28;20040;-79
2022/05/31 07:14:28;;;;;;;8.88;4.35;;;;;;;;;;5086650;28;20051;-80
2022/05/31 07:16:54;;;;;;;7.65;3.95;;;;;;;;;;5070406;28;20037;-79
2022/05/31 07:19:20;;;;;;;6.43;3.47;;;;;;;;;;5059444;28;20502;-79
2022/05/31 07:21:46;;;;;;;8.63;3.95;;;;;;;;;;5062341;28;20048;-78
2022/05/31 07:24:12;;;;;;;8.43;3.67;;;;;;;;;;5060373;28;20037;-79
2022/05/31 07:26:39;;;;;;;7.35;3.85;;;;;;;;;;5074807;28;20461;-79
2022/05/31 07:29:05;;;;;;;6.38;3.45;;;;;;;;;;5059172;28;20103;-79
2022/05/31 07:31:31;;;;;;;11.00;3.75;;;;;;;;;;5069430;28;20044;-78
2022/05/31 07:34:01;;;;;;;6.88;3.58;;;;;;;;;;5071030;28;20059;-79
2022/05/31 07:36:27;;;;;;;9.13;3.30;;;;;;;;;;5070543;28;20051;-80
2022/05/31 07:38:53;;;;;;;7.85;3.50;;;;;;;;;;5060207;28;20078;-79
2022/05/31 07:41:20;;;;;;;7.43;3.20;;;;;;;;;;5065828;28;20385;-80
2022/05/31 07:43:46;;;;;;;6.30;2.90;;;;;;;;;;5055439;28;20053;-79
2022/05/31 07:46:13;;;;;;;8.75;3.35;;;;;;;;;;5056284;28;20044;-78
2022/05/31 07:48:39;;;;;;;6.22;3.20;;;;;;;;;;5065421;28;20048;-79
2022/05/31 07:51:06;;;;;;;7.90;3.45;;;;;;;;;;5058054;28;20044;-79
2022/05/31 07:53:33;;;;;;;7.22;3.33;;;;;;;;;;5062091;28;20045;-78
2022/05/31 07:56:00;;;;;;;6.57;2.80;;;;;;;;;;5065008;28;20089;-79
2022/05/31 07:58:33;;;;;;;8.35;3.00;;;;;;;;;;5056488;28;20071;-79
2022/05/31 08:01:00;;;;;;;8.50;2.60;;;;;;;;;;5056320;28;20128;-77
2022/05/31 08:03:26;;;;;;;9.18;3.10;;;;;;;;;;5063171;28;20052;-78
2022/05/31 08:05:52;;;;;;;7.40;2.67;;;;;;;;;;5062694;28;20036;-77
2022/05/31 08:08:18;;;;;;;7.55;2.92;;;;;;;;;;5065796;28;20067;-79
2022/05/31 08:10:44;;;;;;;7.05;3.10;;;;;;;;;;5074528;28;20044;-77
2022/05/31 08:13:10;;;;;;;8.40;3.00;;;;;;;;;;5064853;28;20394;-78
2022/05/31 08:15:36;;;;;;;8.90;3.28;;;;;;;;;;5072614;28;20044;-77
2022/05/31 08:18:02;;;;;;;6.97;2.95;;;;;;;;;;5058748;28;20037;-78
2022/05/31 08:20:28;;;;;;;7.18;3.00;;;;;;;;;;5060579;28;20048;-80
2022/05/31 08:22:55;;;;;;;7.25;2.83;;;;;;;;;;5071737;28;20056;-80
2022/05/31 08:25:22;;;;;;;5.85;2.60;;;;;;;;;;5077049;28;20056;-79
2022/05/31 08:27:48;;;;;;;8.07;2.67;;;;;;;;;;5077208;28;20055;-77
2022/05/31 08:30:14;;;;;;;7.45;2.60;;;;;;;;;;5074248;28;20449;-77
2022/05/31 08:32:40;;;;;;;7.20;2.92;;;;;;;;;;5064342;28;20095;-76
2022/05/31 08:35:07;;;;;;;6.03;2.78;;;;;;;;;;5073070;28;20457;-76
2022/05/31 08:37:33;;;;;;;6.55;3.00;;;;;;;;;;5066533;28;20068;-78
2022/05/31 08:39:59;;;;;;;7.35;2.55;;;;;;;;;;5065802;28;20052;-78
2022/05/31 08:42:48;;;;;;;6.85;2.17;;;;;;;;;;5067370;28;20102;-75
2022/05/31 08:45:28;;;;;;;5.68;2.03;;;;;;;;;;5073433;28;20088;-75
2022/05/31 08:47:59;;;;;;;7.03;2.15;;;;;;;;;;5065234;28;20045;-75
2022/05/31 08:53:26;;;;;;;8.05;2.13;;;;;;;;;;5054066;28;20057;-75
2022/05/31 08:58:55;;;;;;;13.27;2.92;;;;;;;;;;5075014;28;20048;-75
2022/05/31 09:01:23;;;;;;;8.60;2.22;;;;;;;;;;5071847;28;20087;-76
2022/05/31 09:03:52;;;;;;;7.15;2.08;;;;;;;;;;5054446;28;20056;-74
2022/05/31 09:06:27;;;;;;;7.93;2.35;;;;;;;;;;5072837;28;20410;-75
2022/05/31 09:08:58;;;;;;;8.00;2.42;;;;;;;;;;5072494;28;20474;-79
2022/05/31 09:11:28;;;;;;;11.07;2.67;;;;;;;;;;5072716;28;20127;-79
2022/05/31 09:14:00;;;;;;;5.75;2.10;;;;;;;;;;5063739;28;20499;-76
2022/05/31 09:16:33;;;;;;;13.85;3.10;;;;;;;;;;5053819;28;20049;-76
2022/05/31 09:19:04;;;;;;;8.05;2.65;;;;;;;;;;5063614;28;20132;-76
2022/05/31 09:21:38;;;;;;;11.68;2.50;;;;;;;;;;5054531;28;20055;-78
2022/05/31 09:24:07;;;;;;;5.28;2.20;;;;;;;;;;5047686;28;20127;-79
2022/05/31 09:26:51;;;;;;;6.07;2.30;;;;;;;;;;5062139;28;20047;-78
2022/05/31 09:29:40;;;;;;;11.05;2.35;;;;;;;;;;5071003;28;20491;-77
2022/05/31 09:32:17;;;;;;;7.55;2.10;;;;;;;;;;5053411;28;20139;-76
2022/05/31 09:34:57;;;;;;;9.93;2.42;;;;;;;;;;5054095;28;20045;-76
2022/05/31 09:37:36;;;;;;;6.15;2.20;;;;;;;;;;5053486;28;20052;-76
2022/05/31 09:40:05;;;;;;;5.95;2.20;;;;;;;;;;5073319;28;20040;-78
2022/05/31 09:42:36;;;;;;;6.85;2.10;;;;;;;;;;5072511;28;20091;-77
2022/05/31 09:45:08;;;;;;;7.10;2.10;;;;;;;;;;5053814;28;20037;-77
2022/05/31 09:47:34;;;;;;;7.25;2.15;;;;;;;;;;5086641;28;20119;-78
2022/05/31 09:50:00;;;;;;;5.47;1.90;;;;;;;;;;5059327;28;20051;-77
2022/05/31 09:52:35;;;;;;;6.55;2.08;;;;;;;;;;5061798;28;20037;-75
2022/05/31 09:58:01;;;;;;;10.10;2.65;;;;;;;;;;5061785;28;20494;-77
2022/05/31 10:00:27;;;;;;;7.47;2.07;;;;;;;;;;5068188;28;20051;-76
2022/05/31 10:03:09;;;;;;;9.80;2.55;;;;;;;;;;5069315;28;20295;-76
2022/05/31 10:05:36;;;;;;;7.57;2.20;;;;;;;;;;5070428;28;20048;-75
2022/05/31 10:08:03;;;;;;;11.23;2.38;;;;;;;;;;5072785;28;20053;-76
2022/05/31 10:10:32;;;;;;;7.10;2.15;;;;;;;;;;5069820;28;20099;-76
2022/05/31 10:13:00;;;;;;;6.60;2.00;;;;;;;;;;5069545;28;20045;-77
2022/05/31 10:15:44;;;;;;;6.75;1.92;;;;;;;;;;5066992;28;20428;-75
2022/05/31 10:18:26;;;;;;;5.05;1.90;;;;;;;;;;5069668;28;20044;-76
2022/05/31 10:20:53;;;;;;;5.88;1.90;;;;;;;;;;5073132;28;20044;-76
2022/05/31 10:23:21;;;;;;;8.80;1.90;;;;;;;;;;5069972;28;20493;-77
2022/05/31 10:25:50;;;;;;;7.22;2.20;;;;;;;;;;5057439;28;20041;-80
2022/05/31 10:28:27;;;;;;;6.88;1.88;;;;;;;;;;5071301;28;20059;-77
2022/05/31 10:31:03;;;;;;;5.13;1.77;;;;;;;;;;5093981;28;20095;-77
2022/05/31 10:33:29;;;;;;;6.93;1.70;;;;;;;;;;5058722;28;20491;-77
2022/05/31 10:36:07;;;;;;;6.68;2.08;;;;;;;;;;5057083;28;20091;-76
2022/05/31 10:38:33;;;;;;;5.88;1.80;;;;;;;;;;5057201;28;20173;-77
2022/05/31 10:41:05;;;;;;;11.88;2.53;;;;;;;;;;5056235;28;20539;-77
2022/05/31 10:43:36;;;;;;;8.13;2.25;;;;;;;;;;5051875;28;20053;-77
2022/05/31 10:46:04;;;;;;;6.40;2.00;;;;;;;;;;5056339;28;20103;-77
2022/05/31 10:48:30;;;;;;;6.22;1.83;;;;;;;;;;5055397;28;20062;-77
2022/05/31 10:51:09;;;;;;;5.70;1.90;;;;;;;;;;5053670;28;20482;-77
2022/05/31 10:53:35;;;;;;;6.30;2.20;;;;;;;;;;5051932;28;20124;-77
2022/05/31 10:56:16;;;;;;;5.97;2.10;;;;;;;;;;5052289;28;20128;-77
2022/05/31 10:58:55;;;;;;;6.85;2.10;;;;;;;;;;5065142;28;20041;-77
2022/05/31 11:01:21;;;;;;;6.43;2.10;;;;;;;;;;5054034;28;20040;-80
2022/05/31 11:04:06;;;;;;;7.43;2.58;;;;;;;;;;5070151;28;20376;-78
2022/05/31 11:06:37;;;;;;;6.25;2.72;;;;;;;;;;5072567;28;20398;-77
2022/05/31 11:12:18;;;;;;;5.72;2.45;;;;;;;;;;5052156;28;20072;-77
2022/05/31 11:14:53;;;;;;;6.57;2.20;;;;;;;;;;5056677;28;20056;-77
2022/05/31 11:17:30;;;;;;;6.93;2.00;;;;;;;;;;5073945;28;20092;-76
2022/05/31 11:20:03;;;;;;;6.03;2.30;;;;;;;;;;5075665;28;20441;-76
2022/05/31 11:22:33;;;;;;;5.68;2.15;;;;;;;;;;5069995;28;20045;-78
2022/05/31 11:25:02;;;;;;;5.88;2.40;;;;;;;;;;5053742;28;20045;-79
2022/05/31 11:27:45;;;;;;;5.97;2.30;;;;;;;;;;5056243;28;20059;-77
2022/05/31 11:30:22;;;;;;;6.75;2.50;;;;;;;;;;5065576;28;20106;-76
2022/05/31 11:32:53;;;;;;;7.32;2.17;;;;;;;;;;5055344;28;20041;-78
2022/05/31 11:35:31;;;;;;;7.55;2.42;;;;;;;;;;5055489;28;20052;-78
2022/05/31 11:38:22;;;;;;;7.80;2.40;;;;;;;;;;5054341;28;20044;-77
2022/05/31 11:41:06;;;;;;;7.57;2.40;;;;;;;;;;5055128;28;20073;-78
2022/05/31 11:43:41;;;;;;;8.05;2.40;;;;;;;;;;5059629;28;20040;-76
2022/05/31 11:46:13;;;;;;;13.73;2.63;;;;;;;;;;5063843;28;20044;-77
2022/05/31 11:48:54;;;;;;;9.60;2.78;;;;;;;;;;5055237;28;20049;-75
2022/05/31 11:51:29;;;;;;;11.30;3.00;;;;;;;;;;5058856;28;20072;-76
2022/05/31 11:54:07;;;;;;;7.95;3.30;;;;;;;;;;5056359;28;20059;-77
2022/05/31 11:56:38;;;;;;;7.05;3.42;;;;;;;;;;5064597;28;20121;-75
2022/05/31 11:59:07;;;;;;;7.63;3.28;;;;;;;;;;5068815;28;20090;-76
2022/05/31 12:01:41;;;;;;;8.57;2.97;;;;;;;;;;5072825;28;20047;-76
2022/05/31 12:04:10;;;;;;;7.65;3.03;;;;;;;;;;5065223;28;20040;-77
2022/05/31 12:06:40;;;;;;;6.93;2.67;;;;;;;;;;5061039;28;20084;-77
2022/05/31 12:09:14;;;;;;;7.60;3.00;;;;;;;;;;5054934;28;20056;-78
2022/05/31 12:11:48;;;;;;;9.38;3.17;;;;;;;;;;5061075;28;20131;-77
2022/05/31 12:14:14;;;;;;;8.10;3.13;;;;;;;;;;5074809;28;20097;-77
2022/05/31 12:16:41;;;;;;;8.32;2.90;;;;;;;;;;5067071;28;20053;-76
2022/05/31 12:19:16;;;;;;;6.03;2.78;;;;;;;;;;5055514;28;20380;-78
2022/05/31 12:21:54;;;;;;;8.85;2.85;;;;;;;;;;5069292;28;20388;-77
2022/05/31 12:24:31;;;;;;;11.68;3.28;;;;;;;;;;5073124;28;20041;-75
2022/05/31 12:27:06;;;;;;;13.40;3.53;;;;;;;;;;5071285;28;20056;-77
2022/05/31 12:29:44;;;;;;;6.78;2.80;;;;;;;;;;5077986;28;20383;-76
2022/05/31 12:32:26;;;;;;;5.85;2.53;;;;;;;;;;5072852;28;20150;-76
2022/05/31 12:34:53;;;;;;;7.20;2.50;;;;;;;;;;5066625;28;20114;-76
2022/05/31 12:37:19;;;;;;;9.00;2.10;;;;;;;;;;5068647;28;20044;-76
2022/05/31 12:39:46;;;;;;;7.78;2.72;;;;;;;;;;5074353;28;20056;-76
2022/05/31 12:42:15;;;;;;;17.15;3.10;;;;;;;;;;5069311;28;20053;-74
2022/05/31 12:44:42;;;;;;;7.18;2.45;;;;;;;;;;5069660;28;20040;-76
2022/05/31 12:47:29;;;;;;;29.20;4.38;;;;;;;;;;5061779;28;20032;-76
2022/05/31 12:50:04;;;;;;;20.42;2.88;;;;;;;;;;5056465;28;20098;-75
2022/05/31 12:55:12;;;;;;;15.50;3.08;;;;;;;;;;5069290;28;20094;-76
2022/05/31 13:00:37;;;;;;;9.23;2.88;;;;;;;;;;5061130;28;20487;-77
2022/05/31 13:03:25;;;;;;;7.97;2.78;;;;;;;;;;5066626;28;20052;-76
2022/05/31 13:05:59;;;;;;;9.95;2.85;;;;;;;;;;5069159;28;20044;-75
2022/05/31 13:08:44;;;;;;;9.98;3.03;;;;;;;;;;5070154;28;20079;-77
2022/05/31 13:19:41;;;;;;;7.45;2.67;;;;;;;;;;5068592;28;20048;-77
2022/05/31 13:22:09;;;;;;;8.93;3.03;;;;;;;;;;5072445;28;20040;-77
2022/05/31 13:24:38;;;;;;;7.32;3.30;;;;;;;;;;5058789;28;20066;-76
2022/05/31 13:27:08;;;;;;;7.07;2.53;;;;;;;;;;5079480;28;20090;-76
2022/05/31 13:29:34;;;;;;;7.60;2.63;;;;;;;;;;5070468;28;20076;-76
2022/05/31 13:32:01;;;;;;;6.07;2.80;;;;;;;;;;5068360;28;20473;-75
2022/05/31 13:34:38;;;;;;;8.00;2.78;;;;;;;;;;5061134;28;20048;-77
2022/05/31 13:37:12;;;;;;;10.35;3.28;;;;;;;;;;5065177;28;20052;-77
2022/05/31 13:39:43;;;;;;;7.28;3.30;;;;;;;;;;5072615;28;20376;-77
2022/05/31 13:42:16;;;;;;;7.82;3.15;;;;;;;;;;5060390;28;20048;-77
2022/05/31 13:44:43;;;;;;;7.22;3.13;;;;;;;;;;5071887;28;20406;-76
2022/05/31 13:47:11;;;;;;;6.20;3.20;;;;;;;;;;5061701;28;20459;-76
2022/05/31 13:49:39;;;;;;;6.55;3.10;;;;;;;;;;5061671;28;20090;-76
2022/05/31 13:52:17;;;;;;;6.85;3.13;;;;;;;;;;5069773;28;20479;-76
2022/05/31 13:54:43;;;;;;;6.85;3.38;;;;;;;;;;5056155;28;20044;-77
2022/05/31 13:57:11;;;;;;;5.75;2.90;;;;;;;;;;5066839;28;20059;-76
2022/05/31 13:59:48;;;;;;;6.68;2.80;;;;;;;;;;5053127;28;20427;-77
2022/05/31 14:02:20;;;;;;;7.00;3.50;;;;;;;;;;5070484;28;20129;-76
2022/05/31 14:04:52;;;;;;;6.10;3.20;;;;;;;;;;5070088;28;20048;-76
2022/05/31 14:07:19;;;;;;;5.65;2.88;;;;;;;;;;5053331;28;20056;-76
2022/05/31 14:09:54;;;;;;;6.18;3.00;;;;;;;;;;5053014;28;20128;-76
2022/05/31 14:12:21;;;;;;;9.40;3.05;;;;;;;;;;5086817;28;20037;-76
2022/05/31 14:14:47;;;;;;;6.03;2.78;;;;;;;;;;5069663;28;20162;-76
2022/05/31 14:17:14;;;;;;;8.95;3.22;;;;;;;;;;5072143;28;20067;-76
2022/05/31 14:19:46;;;;;;;8.68;3.30;;;;;;;;;;5073228;28;20051;-76
2022/05/31 14:22:15;;;;;;;6.88;3.20;;;;;;;;;;5071969;28;20166;-76
2022/05/31 14:24:41;;;;;;;6.80;3.38;;;;;;;;;;5062139;28;20491;-75
2022/05/31 14:27:07;;;;;;;7.35;3.22;;;;;;;;;;5052778;28;20045;-75
2022/05/31 14:29:35;;;;;;;6.57;3.00;;;;;;;;;;5069709;28;20040;-76
2022/05/31 14:32:04;;;;;;;7.43;3.00;;;;;;;;;;5072663;28;20055;-75
2022/05/31 14:34:33;;;;;;;7.50;3.13;;;;;;;;;;5071881;28;20039;-74
2022/05/31 14:37:00;;;;;;;7.47;2.90;;;;;;;;;;5069677;28;20090;-74
2022/05/31 14:39:28;;;;;;;6.50;2.83;;;;;;;;;;5071180;28;20049;-75
2022/05/31 14:41:55;;;;;;;5.95;3.00;;;;;;;;;;5072701;28;20721;-75
2022/05/31 14:44:42;;;;;;;8.27;3.00;;;;;;;;;;5067416;28;20045;-75
2022/05/31 14:47:20;;;;;;;6.45;3.35;;;;;;;;;;5054688;28;20048;-75
2022/05/31 14:49:51;;;;;;;8.05;3.35;;;;;;;;;;5063714;28;20067;-74
2022/05/31 14:52:19;;;;;;;8.23;3.25;;;;;;;;;;5076165;28;20040;-75
2022/05/31 14:54:47;;;;;;;8.90;3.45;;;;;;;;;;5074378;28;20048;-75
2022/05/31 14:57:24;;;;;;;5.70;3.38;;;;;;;;;;5076304;28;20041;-74
2022/05/31 14:59:50;;;;;;;9.35;4.35;;;;;;;;;;5070822;28;20441;-74
2022/05/31 15:02:18;;;;;;;10.75;4.53;;;;;;;;;;5060989;28;20037;-74
2022/05/31 15:04:46;;;;;;;11.00;4.72;;;;;;;;;;5056583;28;20045;-75
2022/05/31 15:07:14;;;;;;;8.38;3.85;;;;;;;;;;5056227;28;20041;-75
2022/05/31 15:09:42;;;;;;;10.75;5.78;;;;;;;;;;5055934;28;20088;-75
2022/05/31 15:20:41;;;;;;;14.90;8.57;;;;;;;;;;5070254;28;20486;-75
2022/05/31 15:23:09;;;;;;;8.60;4.72;;;;;;;;;;5074886;28;20090;-75
2022/05/31 15:25:35;;;;;;;14.30;7.95;;;;;;;;;;5076189;28;20040;-74
2022/05/31 15:28:01;;;;;;;10.98;6.60;;;;;;;;;;5072093;28;20041;-76
2022/05/31 15:30:27;;;;;;;8.50;4.47;;;;;;;;;;5068176;28;20394;-75
2022/05/31 15:32:53;;;;;;;12.20;7.05;;;;;;;;;;5072118;28;20574;-76
2022/05/31 15:35:20;;;;;;;25.58;17.85;;;;;;;;;;5073799;28;20040;-75